Rechercher aéroport 
image banner adimage banner adimage banner ad
image banner ad

CA22 - Lauppes Strip

Situé à Sacramento, United States

ICAO - CA22, IATA -

Données fournies par Airmate  

Information générale

Coordonnées: N38°45'34" W121°35'7"
Élévation : 23 feet MSL.
Variation magnétique : 16° East
Voir autres Aéroports à California

Données opérationnelles

Special qualification required
Heure actuelle UTC:
Heure actuelle locale:
Météo à : KSMF - Sacramento Intl ( 7 km )
METAR: KSMF 300053Z 20010KT 10SM FEW250 39/13 A2978 RMK AO2 SLP082 T03890128
TAF: KSMF 292350Z 3000/3024 23005KT P6SM FEW250 FM300200 19008KT P6SM FEW250 FM301100 16005KT P6SM FEW150 FM302300 20007KT P6SM SKC
Voir NOTAMs / SUP AIP / TFR affectant cet aéroport [VIEW]
Fréquences de communication: [VIEW]

Pistes:

Identifiant RWYQFULongueur (ft)Largeur (ft)SurfaceLDA (ft)
15200030EARTH
33200030EARTH

Coordonnées de l'aéroport

Adresse: Sacramento United States

Vue satellite de CA22